createdAt,value
2018-12-01T00:00:56.368Z,3.33
2018-12-01T00:03:23.955Z,3.34
2018-12-01T00:05:51.384Z,3.42
2018-12-01T00:08:18.676Z,3.62
2018-12-01T00:10:46.024Z,3.71
2018-12-01T00:13:13.343Z,3.84
2018-12-01T00:15:40.643Z,3.93
2018-12-01T00:18:08.167Z,4.05
2018-12-01T00:20:36.740Z,4.17
2018-12-01T00:23:04.983Z,4.25
2018-12-01T00:25:32.256Z,4.37
2018-12-01T00:27:59.538Z,4.38
2018-12-01T00:30:26.804Z,4.40
2018-12-01T00:32:55.186Z,4.36
2018-12-01T00:35:22.520Z,4.35
2018-12-01T00:37:49.823Z,4.34
2018-12-01T00:40:18.115Z,4.34
2018-12-01T00:42:45.478Z,4.33
2018-12-01T00:45:13.846Z,4.36
2018-12-01T00:47:41.389Z,4.43
2018-12-01T00:50:10.614Z,4.44
2018-12-01T00:52:38.142Z,4.45
2018-12-01T00:55:07.426Z,4.46
2018-12-01T00:57:34.713Z,4.49
2018-12-01T01:00:02.216Z,4.53
2018-12-01T01:02:32.420Z,4.58
2018-12-01T01:04:59.676Z,4.64
2018-12-01T01:07:26.972Z,4.63
2018-12-01T01:09:54.232Z,4.70
2018-12-01T01:12:21.507Z,4.72
2018-12-01T01:14:48.797Z,4.72
2018-12-01T01:17:16.138Z,4.74
2018-12-01T01:19:43.411Z,4.78
2018-12-01T01:25:00.864Z,4.75
2018-12-01T01:27:28.182Z,4.77
2018-12-01T01:29:55.480Z,4.78
2018-12-01T01:32:22.763Z,4.81
2018-12-01T01:34:50.115Z,4.82
2018-12-01T01:37:17.900Z,4.86
2018-12-01T01:39:45.279Z,4.87
2018-12-01T01:42:12.533Z,4.85
2018-12-01T01:44:39.848Z,4.86
2018-12-01T01:47:07.154Z,4.83
2018-12-01T01:49:34.392Z,4.78
2018-12-01T01:52:01.751Z,4.78
2018-12-01T01:54:29.008Z,4.82
2018-12-01T01:56:56.292Z,4.84
2018-12-01T01:59:23.642Z,4.84
2018-12-01T02:01:50.999Z,4.81
2018-12-01T02:04:18.308Z,4.81
2018-12-01T02:06:45.607Z,4.79
2018-12-01T02:09:13.655Z,4.78
2018-12-01T02:11:40.962Z,4.79
2018-12-01T02:14:08.282Z,4.83
2018-12-01T02:16:35.515Z,4.82
2018-12-01T02:19:02.764Z,4.83
2018-12-01T02:21:30.093Z,4.82
2018-12-01T02:23:58.039Z,4.86
2018-12-01T02:26:25.320Z,4.87
2018-12-01T02:28:52.690Z,4.90
2018-12-01T02:31:20.015Z,4.94
2018-12-01T02:33:47.412Z,4.98
2018-12-01T02:36:14.691Z,4.98
2018-12-01T02:38:42.005Z,4.95
2018-12-01T02:41:09.352Z,4.95
2018-12-01T02:43:36.623Z,4.92
2018-12-01T02:46:15.378Z,4.90
2018-12-01T02:48:42.697Z,4.92
2018-12-01T02:51:10.440Z,4.90
2018-12-01T02:53:37.755Z,4.90
2018-12-01T02:56:05.010Z,4.88
2018-12-01T02:58:32.299Z,4.90
2018-12-01T03:00:59.597Z,4.94
2018-12-01T03:03:26.868Z,5.06
2018-12-01T03:05:54.227Z,5.08
2018-12-01T03:08:21.527Z,5.06
2018-12-01T03:10:48.845Z,5.06
2018-12-01T03:13:16.168Z,5.05
2018-12-01T03:15:43.508Z,5.03
2018-12-01T03:18:13.584Z,5.01
2018-12-01T03:20:38.123Z,4.99
2018-12-01T03:23:05.667Z,4.97
2018-12-01T03:25:33.020Z,4.93
2018-12-01T03:28:00.319Z,4.93
2018-12-01T03:30:27.586Z,4.92
2018-12-01T03:32:55.341Z,4.96
2018-12-01T03:35:23.476Z,4.93
2018-12-01T03:37:51.020Z,4.89
2018-12-01T03:40:19.111Z,4.87
2018-12-01T03:42:46.575Z,4.88
2018-12-01T03:45:15.843Z,4.94
2018-12-01T03:47:43.192Z,4.98
2018-12-01T03:50:24.472Z,4.93
2018-12-01T03:52:56.041Z,4.85
2018-12-01T03:55:33.124Z,4.79
2018-12-01T03:58:00.938Z,4.76
2018-12-01T04:00:29.145Z,4.73
2018-12-01T04:02:57.362Z,4.67
2018-12-01T04:05:24.706Z,4.66
2018-12-01T04:07:52.157Z,4.64
2018-12-01T04:10:20.248Z,4.63
2018-12-01T04:12:47.584Z,4.59
2018-12-01T04:15:14.943Z,4.61
2018-12-01T04:17:42.269Z,4.61
2018-12-01T04:20:09.590Z,4.66
2018-12-01T04:22:38.048Z,4.68
2018-12-01T04:25:07.433Z,4.72
2018-12-01T04:27:35.135Z,4.68
2018-12-01T04:30:03.804Z,4.67
2018-12-01T04:32:31.210Z,4.66
2018-12-01T04:34:58.497Z,4.74
2018-12-01T04:37:25.844Z,4.72
2018-12-01T04:39:53.145Z,4.72
2018-12-01T04:42:20.424Z,4.77
2018-12-01T04:44:47.707Z,4.81
2018-12-01T04:47:14.961Z,4.88
2018-12-01T04:49:42.244Z,4.92
2018-12-01T04:52:09.632Z,4.92
2018-12-01T04:54:36.934Z,4.93
2018-12-01T04:57:04.292Z,5.00
2018-12-01T04:59:31.554Z,5.01
2018-12-01T05:01:59.062Z,5.05
2018-12-01T05:04:26.363Z,5.12
2018-12-01T05:06:53.616Z,5.13
2018-12-01T05:09:20.887Z,5.10
2018-12-01T05:11:49.590Z,5.13
2018-12-01T05:14:16.910Z,5.17
2018-12-01T05:16:44.204Z,5.17
2018-12-01T05:19:11.452Z,5.17
2018-12-01T05:21:38.851Z,5.18
2018-12-01T05:24:06.117Z,5.19
2018-12-01T05:26:33.441Z,5.16
2018-12-01T05:29:02.782Z,5.23
2018-12-01T05:31:30.057Z,5.31
2018-12-01T05:33:57.319Z,5.31
2018-12-01T05:36:24.622Z,5.35
2018-12-01T05:38:51.921Z,5.42
2018-12-01T05:41:19.295Z,5.39
2018-12-01T05:43:46.794Z,5.43
2018-12-01T05:46:14.058Z,5.42
2018-12-01T05:48:41.352Z,5.43
2018-12-01T05:51:08.608Z,5.46
2018-12-01T05:53:35.907Z,5.47
2018-12-01T05:56:03.187Z,5.48
2018-12-01T05:58:30.524Z,5.53
2018-12-01T06:00:57.942Z,5.53
2018-12-01T06:03:25.289Z,5.52
2018-12-01T06:05:52.577Z,5.48
2018-12-01T06:08:19.883Z,5.57
2018-12-01T06:10:47.302Z,5.53
2018-12-01T06:13:14.554Z,5.54
2018-12-01T06:15:41.871Z,5.54
2018-12-01T06:18:09.141Z,5.55
2018-12-01T06:20:36.369Z,5.57
2018-12-01T06:23:03.700Z,5.69
2018-12-01T06:25:30.939Z,5.70
2018-12-01T06:27:58.234Z,5.69
2018-12-01T06:30:25.547Z,5.68
2018-12-01T06:32:53.849Z,5.71
2018-12-01T06:35:21.247Z,5.69
2018-12-01T06:37:48.711Z,5.67
2018-12-01T06:40:17.714Z,5.63
2018-12-01T06:42:45.642Z,5.65
2018-12-01T06:45:13.941Z,5.64
2018-12-01T06:47:41.332Z,5.67
2018-12-01T06:50:11.893Z,5.63
2018-12-01T06:52:39.274Z,5.58
2018-12-01T06:55:11.114Z,5.60
2018-12-01T06:57:39.516Z,5.61
2018-12-01T07:00:10.806Z,5.62
2018-12-01T07:02:38.286Z,5.61
2018-12-01T07:05:07.147Z,5.57
2018-12-01T07:07:35.123Z,5.52
2018-12-01T07:10:03.126Z,5.58
2018-12-01T07:12:30.702Z,5.58
2018-12-01T07:14:58.962Z,5.53
2018-12-01T07:17:26.505Z,5.55
2018-12-01T07:19:53.868Z,5.56
2018-12-01T07:22:21.904Z,5.60
2018-12-01T07:24:49.960Z,5.55
2018-12-01T07:27:17.401Z,5.57
2018-12-01T07:29:44.897Z,5.57
2018-12-01T07:32:12.308Z,5.57
2018-12-01T07:34:40.332Z,5.60
2018-12-01T07:37:08.050Z,5.62
2018-12-01T07:39:36.715Z,5.66
2018-12-01T07:42:05.981Z,5.71
2018-12-01T07:44:34.220Z,5.73
2018-12-01T07:47:05.091Z,5.72
2018-12-01T07:49:33.687Z,5.73
2018-12-01T07:52:01.136Z,5.70
2018-12-01T07:54:28.729Z,5.69
2018-12-01T07:56:56.516Z,5.74
2018-12-01T07:59:24.097Z,5.79
2018-12-01T08:01:52.437Z,5.77
2018-12-01T08:04:23.466Z,5.75
2018-12-01T08:06:50.838Z,5.77
2018-12-01T08:09:18.619Z,5.77
2018-12-01T08:11:46.083Z,5.78
2018-12-01T08:14:14.459Z,5.79
2018-12-01T08:16:42.548Z,5.82
2018-12-01T08:19:10.394Z,5.81
2018-12-01T08:21:38.909Z,5.82
2018-12-01T08:24:06.621Z,5.82
2018-12-01T08:26:34.616Z,5.81
2018-12-01T08:29:02.149Z,5.86
2018-12-01T08:31:30.264Z,5.89
2018-12-01T08:33:57.596Z,6.01
2018-12-01T08:36:25.018Z,6.09
2018-12-01T08:38:53.520Z,6.13
2018-12-01T08:41:21.639Z,6.25
2018-12-01T08:43:50.018Z,6.35
2018-12-01T08:46:18.098Z,6.50
2018-12-01T08:48:45.645Z,6.56
2018-12-01T08:51:13.067Z,6.59
2018-12-01T08:53:40.467Z,6.64
2018-12-01T08:56:09.806Z,6.75
2018-12-01T08:58:37.299Z,7.02
2018-12-01T09:01:05.390Z,7.24
2018-12-01T09:03:32.939Z,7.13
2018-12-01T09:06:01.146Z,6.98
2018-12-01T09:08:28.556Z,6.85
2018-12-01T09:10:56.570Z,6.80
2018-12-01T09:13:25.429Z,6.77
2018-12-01T09:15:52.973Z,6.78
2018-12-01T09:18:21.692Z,6.81
2018-12-01T09:20:49.004Z,6.86
2018-12-01T09:23:17.247Z,6.94
2018-12-01T09:25:44.771Z,7.02
2018-12-01T09:28:13.257Z,7.21
2018-12-01T09:30:42.507Z,7.47
2018-12-01T09:33:09.939Z,7.54
2018-12-01T09:35:37.366Z,7.65
2018-12-01T09:38:04.975Z,7.84
2018-12-01T09:40:34.844Z,7.98
2018-12-01T09:43:03.518Z,7.95
2018-12-01T09:45:31.117Z,7.78
2018-12-01T09:47:58.628Z,7.83
2018-12-01T09:50:25.995Z,7.88
2018-12-01T09:52:54.663Z,7.98
2018-12-01T09:55:23.292Z,7.95
2018-12-01T09:57:52.171Z,7.85
2018-12-01T10:00:24.212Z,7.73
2018-12-01T10:02:52.346Z,7.64
2018-12-01T10:05:20.401Z,7.60
2018-12-01T10:07:48.827Z,7.68
2018-12-01T10:10:17.446Z,7.68
2018-12-01T10:12:46.062Z,7.62
2018-12-01T10:15:18.920Z,7.53
2018-12-01T10:17:46.382Z,7.37
2018-12-01T10:20:15.278Z,7.27
2018-12-01T10:22:43.638Z,7.19
2018-12-01T10:25:13.963Z,7.31
2018-12-01T10:27:41.558Z,7.63
2018-12-01T10:30:11.287Z,7.85
2018-12-01T10:32:40.323Z,7.86
2018-12-01T10:35:09.216Z,7.96
2018-12-01T10:37:37.919Z,8.11
2018-12-01T10:40:09.573Z,8.22
2018-12-01T10:42:36.986Z,8.31
2018-12-01T10:45:13.080Z,8.43
2018-12-01T10:47:40.579Z,8.61
2018-12-01T10:50:11.719Z,8.83
2018-12-01T10:52:39.686Z,8.96
2018-12-01T10:55:09.858Z,8.99
2018-12-01T10:57:40.195Z,8.96
2018-12-01T11:00:17.269Z,8.82
2018-12-01T11:02:55.469Z,8.76
2018-12-01T11:05:19.217Z,8.64
2018-12-01T11:07:48.729Z,8.72
2018-12-01T11:10:16.833Z,8.80
2018-12-01T11:12:44.885Z,8.83
2018-12-01T11:15:13.262Z,8.84
2018-12-01T11:17:40.734Z,8.78
2018-12-01T11:20:10.496Z,8.75
2018-12-01T11:22:38.280Z,8.66
2018-12-01T11:25:07.903Z,8.58
2018-12-01T11:27:35.985Z,8.55
2018-12-01T11:30:14.389Z,8.51
2018-12-01T11:32:42.976Z,8.32
2018-12-01T11:35:15.359Z,8.34
2018-12-01T11:37:42.977Z,8.31
2018-12-01T11:40:17.246Z,8.20
2018-12-01T11:42:44.980Z,8.20
2018-12-01T11:45:19.012Z,8.17
2018-12-01T11:47:47.455Z,8.16
2018-12-01T11:50:17.272Z,8.18
2018-12-01T11:52:47.594Z,8.14
2018-12-01T11:55:17.407Z,8.09
2018-12-01T11:57:45.510Z,8.05
2018-12-01T12:00:14.843Z,7.97
2018-12-01T12:02:42.362Z,7.87
2018-12-01T12:05:10.714Z,7.79
2018-12-01T12:07:50.956Z,7.71
2018-12-01T12:10:19.213Z,7.70
2018-12-01T12:12:46.850Z,7.76
2018-12-01T12:15:14.308Z,7.84
2018-12-01T12:17:43.725Z,7.85
2018-12-01T12:20:11.227Z,7.85
2018-12-01T12:22:38.846Z,7.78
2018-12-01T12:25:10.047Z,7.79
2018-12-01T12:27:37.506Z,7.80
2018-12-01T12:30:09.573Z,7.88
2018-12-01T12:32:37.598Z,7.81
2018-12-01T12:35:07.437Z,7.75
2018-12-01T12:37:35.115Z,7.76
2018-12-01T12:40:02.856Z,7.74
2018-12-01T12:42:31.699Z,7.81
2018-12-01T12:44:59.255Z,7.84
2018-12-01T12:47:26.864Z,7.75
2018-12-01T12:49:55.513Z,7.73
2018-12-01T12:52:22.987Z,7.67
2018-12-01T12:54:50.580Z,7.57
2018-12-01T12:57:18.065Z,7.58
2018-12-01T12:59:46.447Z,7.58
2018-12-01T13:02:13.872Z,7.63
2018-12-01T13:04:41.382Z,7.66
2018-12-01T13:07:09.793Z,7.63
2018-12-01T13:09:37.804Z,7.62
2018-12-01T13:12:06.216Z,7.64
2018-12-01T13:14:34.670Z,7.62
2018-12-01T13:17:02.150Z,7.57
2018-12-01T13:19:30.663Z,7.52
2018-12-01T13:21:58.049Z,7.48
2018-12-01T13:24:25.734Z,7.44
2018-12-01T13:26:53.264Z,7.37
2018-12-01T13:29:21.060Z,7.29
2018-12-01T13:31:54.390Z,7.24
2018-12-01T13:34:17.371Z,7.25
2018-12-01T13:36:44.933Z,7.25
2018-12-01T13:39:13.142Z,7.22
2018-12-01T13:41:41.064Z,7.18
2018-12-01T13:44:08.645Z,7.13
2018-12-01T13:46:36.384Z,7.10
2018-12-01T13:49:07.278Z,7.09
2018-12-01T13:51:35.221Z,7.10
2018-12-01T13:54:03.225Z,7.02
2018-12-01T13:56:30.876Z,7.01
2018-12-01T13:58:58.407Z,6.98
2018-12-01T14:01:25.833Z,6.98
2018-12-01T14:03:53.918Z,6.96
2018-12-01T14:06:21.332Z,6.90
2018-12-01T14:08:48.817Z,6.81
2018-12-01T14:11:16.298Z,6.77
2018-12-01T14:13:43.691Z,6.66
2018-12-01T14:16:11.167Z,6.57
2018-12-01T14:18:38.706Z,6.48
2018-12-01T14:21:06.855Z,6.44
2018-12-01T14:23:34.960Z,6.38
2018-12-01T14:26:04.969Z,6.37
2018-12-01T14:28:33.147Z,6.30
2018-12-01T14:31:01.532Z,6.26
2018-12-01T14:33:31.587Z,6.26
2018-12-01T14:36:01.000Z,6.23
2018-12-01T14:38:29.152Z,6.16
2018-12-01T14:40:58.369Z,6.14
2018-12-01T14:43:25.891Z,6.12
2018-12-01T14:45:55.707Z,6.08
2018-12-01T14:48:24.070Z,6.10
2018-12-01T14:50:52.048Z,6.12
2018-12-01T14:53:21.513Z,6.07
2018-12-01T14:55:50.169Z,6.05
2018-12-01T14:58:21.049Z,6.04
2018-12-01T15:00:48.521Z,6.05
2018-12-01T15:03:16.789Z,5.98
2018-12-01T15:05:44.646Z,5.95
2018-12-01T15:08:16.292Z,5.90
2018-12-01T15:10:43.755Z,5.78
2018-12-01T15:13:11.202Z,5.71
2018-12-01T15:15:40.517Z,5.67
2018-12-01T15:18:08.320Z,5.52
2018-12-01T15:20:36.540Z,5.44
2018-12-01T15:23:04.910Z,5.34
2018-12-01T15:25:33.149Z,5.32
2018-12-01T15:28:00.746Z,5.22
2018-12-01T15:30:29.429Z,5.19
2018-12-01T15:33:04.423Z,5.14
2018-12-01T15:35:31.979Z,5.10
2018-12-01T15:38:01.343Z,5.14
2018-12-01T15:40:28.762Z,5.13
2018-12-01T15:42:56.110Z,5.12
2018-12-01T15:45:23.807Z,5.10
2018-12-01T15:47:51.258Z,5.02
2018-12-01T15:50:19.468Z,5.00
2018-12-01T15:52:50.418Z,4.98
2018-12-01T15:55:25.387Z,4.95
2018-12-01T15:57:53.565Z,4.84
2018-12-01T16:00:25.277Z,4.71
2018-12-01T16:02:52.812Z,4.60
2018-12-01T16:05:21.276Z,4.50
2018-12-01T16:07:50.395Z,4.54
2018-12-01T16:10:19.794Z,4.65
2018-12-01T16:12:48.680Z,4.66
2018-12-01T16:15:18.798Z,4.73
2018-12-01T16:17:46.361Z,4.80
2018-12-01T16:20:14.622Z,4.97
2018-12-01T16:22:42.550Z,5.12
2018-12-01T16:25:11.996Z,5.21
2018-12-01T16:27:41.278Z,5.19
2018-12-01T16:30:43.551Z,5.23
2018-12-01T16:33:14.349Z,5.28
2018-12-01T16:35:42.255Z,5.37
2018-12-01T16:38:11.338Z,5.45
2018-12-01T16:40:47.895Z,5.53
2018-12-01T16:43:16.828Z,5.60
2018-12-01T16:45:48.467Z,5.75
2018-12-01T16:48:17.184Z,5.76
2018-12-01T16:50:46.689Z,5.70
2018-12-01T16:53:17.568Z,5.68
2018-12-01T16:55:47.454Z,5.66
2018-12-01T16:58:15.890Z,5.65
2018-12-01T17:00:43.338Z,5.69
2018-12-01T17:03:13.377Z,5.71
2018-12-01T17:05:49.840Z,5.74
2018-12-01T17:08:19.337Z,5.77
2018-12-01T17:10:47.603Z,5.75
2018-12-01T17:13:15.558Z,5.79
2018-12-01T17:15:42.967Z,5.75
2018-12-01T17:18:10.406Z,5.77
2018-12-01T17:20:38.127Z,5.78
2018-12-01T17:23:09.654Z,5.79
2018-12-01T17:25:46.342Z,5.76
2018-12-01T17:28:17.308Z,5.67
2018-12-01T17:30:50.783Z,5.66
2018-12-01T17:33:19.214Z,5.68
2018-12-01T17:35:49.651Z,5.65
2018-12-01T17:38:20.467Z,5.60
2018-12-01T17:40:54.757Z,5.62
2018-12-01T17:43:35.370Z,5.58
2018-12-01T17:46:06.486Z,5.59
2018-12-01T17:48:36.755Z,5.60
2018-12-01T17:51:05.387Z,5.61
2018-12-01T17:53:36.359Z,5.67
2018-12-01T17:56:09.314Z,5.71
2018-12-01T17:58:39.888Z,5.68
2018-12-01T18:01:09.365Z,5.71
2018-12-01T18:03:36.912Z,5.74
2018-12-01T18:06:10.905Z,5.75
2018-12-01T18:08:44.237Z,5.82
2018-12-01T18:11:15.898Z,5.81
2018-12-01T18:13:44.758Z,5.75
2018-12-01T18:16:13.586Z,5.78
2018-12-01T18:18:47.225Z,5.73
2018-12-01T18:21:24.806Z,5.79
2018-12-01T18:23:56.557Z,5.75
2018-12-01T18:26:28.206Z,5.73
2018-12-01T18:28:57.341Z,5.73
2018-12-01T18:31:27.276Z,5.79
2018-12-01T18:34:07.910Z,5.86
2018-12-01T18:36:38.351Z,5.80
2018-12-01T18:39:14.815Z,5.76
2018-12-01T18:41:43.579Z,5.74
2018-12-01T18:44:11.584Z,5.76
2018-12-01T18:46:41.009Z,5.80
2018-12-01T18:49:13.622Z,5.86
2018-12-01T18:51:42.093Z,5.83
2018-12-01T18:54:09.673Z,5.84
2018-12-01T18:56:36.965Z,5.83
2018-12-01T18:59:04.707Z,5.82
2018-12-01T19:01:31.994Z,5.77
2018-12-01T19:03:59.509Z,5.76
2018-12-01T19:06:26.916Z,5.79
2018-12-01T19:08:54.878Z,5.92
2018-12-01T19:11:22.372Z,6.00
2018-12-01T19:13:49.677Z,5.99
2018-12-01T19:16:17.086Z,6.00
2018-12-01T19:18:44.344Z,5.98
2018-12-01T19:21:11.597Z,5.98
2018-12-01T19:23:45.267Z,6.03
2018-12-01T19:26:12.705Z,6.06
2018-12-01T19:28:41.851Z,6.07
2018-12-01T19:31:09.603Z,6.11
2018-12-01T19:33:38.436Z,6.09
2018-12-01T19:36:07.110Z,6.11
2018-12-01T19:38:34.513Z,6.09
2018-12-01T19:41:02.208Z,6.15
2018-12-01T19:43:30.391Z,6.14
2018-12-01T19:45:57.795Z,6.12
2018-12-01T19:48:29.466Z,6.09
2018-12-01T19:50:57.428Z,6.07
2018-12-01T19:53:24.794Z,6.07
2018-12-01T19:55:53.088Z,6.02
2018-12-01T19:58:29.166Z,6.13
2018-12-01T20:00:57.669Z,6.12
2018-12-01T20:03:27.075Z,6.07
2018-12-01T20:05:54.465Z,6.13
2018-12-01T20:08:22.375Z,6.12
2018-12-01T20:10:58.766Z,6.08
2018-12-01T20:13:57.539Z,6.18
2018-12-01T20:16:28.807Z,6.44
2018-12-01T20:18:56.505Z,6.37
2018-12-01T20:21:24.212Z,6.48
2018-12-01T20:23:51.687Z,6.59
2018-12-01T20:26:19.087Z,6.60
2018-12-01T20:28:46.501Z,6.58
2018-12-01T20:31:13.941Z,6.56
2018-12-01T20:33:42.113Z,6.52
2018-12-01T20:36:14.707Z,6.56
2018-12-01T20:38:46.408Z,6.43
2018-12-01T20:41:13.842Z,6.62
2018-12-01T20:43:41.363Z,6.52
2018-12-01T20:46:08.782Z,6.58
2018-12-01T20:48:37.070Z,6.53
2018-12-01T20:51:05.207Z,6.63
2018-12-01T20:53:32.624Z,6.70
2018-12-01T20:56:00.337Z,6.75
2018-12-01T20:58:29.728Z,6.81
2018-12-01T21:00:57.448Z,6.93
2018-12-01T21:03:24.881Z,6.98
2018-12-01T21:05:52.432Z,6.94
2018-12-01T21:08:27.443Z,6.94
2018-12-01T21:10:51.958Z,6.92
2018-12-01T21:13:19.687Z,6.95
2018-12-01T21:15:47.344Z,6.97
2018-12-01T21:18:14.700Z,6.98
2018-12-01T21:20:42.200Z,6.98
2018-12-01T21:23:11.824Z,6.98
2018-12-01T21:25:39.498Z,7.01
2018-12-01T21:28:07.000Z,6.95
2018-12-01T21:30:34.344Z,6.93
2018-12-01T21:33:08.894Z,6.95
2018-12-01T21:35:36.614Z,6.88
2018-12-01T21:38:05.018Z,6.78
2018-12-01T21:40:31.640Z,6.76
2018-12-01T21:42:59.096Z,6.76
2018-12-01T21:45:26.691Z,6.81
2018-12-01T21:47:54.151Z,6.86
2018-12-01T21:50:22.138Z,6.81
2018-12-01T21:52:52.704Z,6.93
2018-12-01T21:55:20.341Z,6.93
2018-12-01T21:57:48.403Z,6.94
2018-12-01T22:00:26.411Z,6.84
2018-12-01T22:03:06.854Z,6.79
2018-12-01T22:05:39.411Z,6.87
2018-12-01T22:08:08.376Z,6.89
2018-12-01T22:10:35.788Z,6.87
2018-12-01T22:13:03.669Z,6.91
2018-12-01T22:15:31.259Z,6.92
2018-12-01T22:17:58.524Z,6.96
2018-12-01T22:20:25.925Z,7.01
2018-12-01T22:22:53.294Z,7.06
2018-12-01T22:25:21.201Z,7.07
2018-12-01T22:27:49.078Z,7.09
2018-12-01T22:30:18.459Z,7.15
2018-12-01T22:32:55.557Z,7.20
2018-12-01T22:35:24.245Z,7.22
2018-12-01T22:37:52.258Z,7.20
2018-12-01T22:40:22.729Z,7.13
2018-12-01T22:42:52.448Z,7.14
2018-12-01T22:45:20.432Z,7.17
2018-12-01T22:47:47.875Z,7.09
2018-12-01T22:50:20.635Z,7.19
2018-12-01T22:52:48.291Z,7.20
2018-12-01T22:55:23.444Z,7.18
2018-12-01T22:57:52.115Z,7.19
2018-12-01T23:00:25.280Z,7.12
2018-12-01T23:02:53.232Z,7.14
2018-12-01T23:05:21.113Z,7.10
2018-12-01T23:07:48.430Z,7.11
2018-12-01T23:10:16.368Z,7.08
2018-12-01T23:12:44.711Z,7.03
2018-12-01T23:15:13.069Z,7.02
2018-12-01T23:17:41.727Z,7.14
2018-12-01T23:20:12.337Z,7.15
2018-12-01T23:22:39.681Z,7.12
2018-12-01T23:25:08.125Z,7.11
2018-12-01T23:27:35.441Z,7.09
2018-12-01T23:30:04.156Z,7.08
2018-12-01T23:32:32.360Z,7.08
2018-12-01T23:35:00.248Z,7.08
2018-12-01T23:37:28.253Z,7.15
2018-12-01T23:39:55.527Z,7.11
2018-12-01T23:42:22.786Z,7.15
2018-12-01T23:44:50.264Z,7.13
2018-12-01T23:47:17.604Z,7.15
2018-12-01T23:49:44.924Z,7.20
2018-12-01T23:52:12.852Z,7.15
2018-12-01T23:54:40.120Z,7.14
2018-12-01T23:57:08.708Z,7.15
2018-12-01T23:59:36.691Z,7.12
